Time;durP1;ratioP1;P1;durP2;ratioP2;P2;SDS_P1;SDS_P2;PMS_P1;PMS_P2;Temp;Humidity;BMP_temperature;BMP_pressure;BME280_temperature;BME280_humidity;BME280_pressure;Samples;Min_cycle;Max_cycle;Signal;HPM_P1;HPM_P2
2022/10/28 00:00:04;;;;;;;10.10;8.17;;;;;;;;;;5081001;28;20526;-82
2022/10/28 00:02:31;;;;;;;7.70;6.90;;;;;;;;;;5086517;28;20441;-82
2022/10/28 00:04:59;;;;;;;11.33;8.20;;;13.10;99.90;;;;;;5086214;28;20535;-81
2022/10/28 00:07:28;;;;;;;11.27;8.23;;;13.20;99.90;;;;;;5085375;28;20954;-82
2022/10/28 00:09:55;;;;;;;10.57;9.10;;;13.00;99.90;;;;;;5083403;28;20455;-81
2022/10/28 00:12:22;;;;;;;10.13;8.57;;;;;;;;;;5076654;28;20812;-81
2022/10/28 00:14:48;;;;;;;10.13;7.83;;;13.20;99.90;;;;;;5076867;28;20831;-81
2022/10/28 00:17:15;;;;;;;8.50;7.60;;;13.40;99.90;;;;;;5076563;28;20448;-85
2022/10/28 00:19:42;;;;;;;9.60;8.20;;;;;;;;;;5076048;28;20483;-82
2022/10/28 00:22:10;;;;;;;8.00;7.30;;;13.30;99.90;;;;;;5077384;28;20453;-82
2022/10/28 00:24:37;;;;;;;9.03;8.13;;;13.10;99.90;;;;;;5076275;28;20469;-82
2022/10/28 00:27:04;;;;;;;10.47;7.90;;;13.10;99.90;;;;;;5076640;28;20456;-82
2022/10/28 00:29:31;;;;;;;8.00;7.30;;;13.40;99.90;;;;;;5076729;28;20441;-81
2022/10/28 00:31:58;;;;;;;8.10;7.30;;;;;;;;;;5076905;28;20539;-82
2022/10/28 00:34:25;;;;;;;8.20;7.40;;;;;;;;;;5076740;28;20481;-82
2022/10/28 00:36:51;;;;;;;9.80;8.17;;;13.70;99.90;;;;;;5076951;28;20436;-82
2022/10/28 00:39:21;;;;;;;7.77;7.07;;;13.10;99.90;;;;;;5077004;28;20483;-82
2022/10/28 00:41:50;;;;;;;11.50;8.17;;;13.70;99.90;;;;;;5078134;28;20416;-83
2022/10/28 00:44:51;;;;;;;11.53;8.17;;;13.40;99.90;;;;;;5075771;28;21005;-81
2022/10/28 00:47:36;;;;;;;11.70;7.93;;;13.00;99.90;;;;;;5077680;28;20922;-83
2022/10/28 00:50:20;;;;;;;9.27;7.33;;;13.40;99.90;;;;;;5086683;28;20426;-81
2022/10/28 00:52:50;;;;;;;12.07;7.13;;;13.40;99.90;;;;;;5083642;28;20500;-82
2022/10/28 00:55:21;;;;;;;9.47;7.20;;;13.60;99.90;;;;;;5077005;28;20862;-81
2022/10/28 00:57:48;;;;;;;9.90;8.30;;;;;;;;;;5076385;28;20437;-81
2022/10/28 01:00:15;;;;;;;12.93;7.03;;;13.40;99.90;;;;;;5076563;28;20643;-80
2022/10/28 01:02:45;;;;;;;10.67;9.20;;;13.30;99.90;;;;;;5076251;28;20440;-82
2022/10/28 01:05:14;;;;;;;10.47;7.20;;;13.50;99.90;;;;;;5083029;28;20515;-81
2022/10/28 01:07:41;;;;;;;10.50;8.00;;;13.20;99.90;;;;;;5082659;28;20873;-81
2022/10/28 01:10:09;;;;;;;9.70;8.63;;;13.30;99.90;;;;;;5082808;28;20440;-81
2022/10/28 01:12:48;;;;;;;8.37;7.43;;;13.30;99.90;;;;;;5082489;28;20452;-82
2022/10/28 01:15:27;;;;;;;8.40;7.70;;;13.30;99.90;;;;;;5079385;28;20439;-81
2022/10/28 01:18:00;;;;;;;9.60;8.70;;;13.40;99.90;;;;;;5081102;28;20437;-81
2022/10/28 01:20:54;;;;;;;8.20;7.30;;;13.10;99.90;;;;;;5081657;28;20468;-81
2022/10/28 01:23:28;;;;;;;9.73;7.87;;;13.40;99.90;;;;;;5080835;28;20436;-81
2022/10/28 01:26:29;;;;;;;13.27;7.73;;;13.40;99.90;;;;;;5082005;28;20982;-81
2022/10/28 01:29:40;;;;;;;7.63;6.93;;;13.30;99.90;;;;;;5082435;28;20428;-82
2022/10/28 01:32:13;;;;;;;13.73;7.27;;;13.30;99.90;;;;;;5077715;28;20433;-81
2022/10/28 01:34:49;;;;;;;8.20;7.43;;;13.30;99.90;;;;;;5077640;28;20469;-82
2022/10/28 01:37:21;;;;;;;7.60;6.80;;;13.30;99.90;;;;;;5076279;28;20436;-81
2022/10/28 01:39:50;;;;;;;9.10;7.37;;;13.30;99.90;;;;;;5075425;28;20469;-81
2022/10/28 01:42:27;;;;;;;10.17;7.47;;;13.30;99.90;;;;;;5075135;28;20445;-81
2022/10/28 01:45:01;;;;;;;8.13;7.20;;;13.30;99.90;;;;;;5074784;28;20472;-82
2022/10/28 01:47:34;;;;;;;9.40;7.20;;;13.30;99.90;;;;;;5075390;28;20463;-83
2022/10/28 01:50:05;;;;;;;10.73;8.17;;;13.20;99.90;;;;;;5075987;28;20421;-82
2022/10/28 01:52:32;;;;;;;9.13;8.00;;;13.30;99.90;;;;;;5075864;28;20952;-82
2022/10/28 01:55:04;;;;;;;6.70;6.13;;;13.10;99.90;;;;;;5075230;28;20464;-82
2022/10/28 01:57:33;;;;;;;8.17;7.37;;;12.80;99.90;;;;;;5076165;28;20436;-82
2022/10/28 02:00:01;;;;;;;7.37;6.60;;;13.10;99.90;;;;;;5075813;28;20480;-82
2022/10/28 02:02:32;;;;;;;10.27;7.47;;;12.80;99.90;;;;;;5075803;28;20466;-82
2022/10/28 02:05:26;;;;;;;12.37;7.93;;;13.10;99.90;;;;;;5076651;28;20465;-83
2022/10/28 02:07:59;;;;;;;10.87;7.80;;;13.00;99.90;;;;;;5076076;28;20445;-83
2022/10/28 02:10:35;;;;;;;10.83;7.40;;;13.00;99.90;;;;;;5078809;28;20899;-88
2022/10/28 02:13:11;;;;;;;8.60;7.80;;;13.30;99.90;;;;;;5076198;28;20464;-80
2022/10/28 02:15:42;;;;;;;8.40;7.60;;;12.70;99.90;;;;;;5077031;28;20475;-79
2022/10/28 02:18:25;;;;;;;13.27;7.43;;;12.70;99.90;;;;;;5079225;28;20563;-78
2022/10/28 02:20:55;;;;;;;9.20;7.93;;;12.70;99.90;;;;;;5077910;28;20464;-78
2022/10/28 02:23:29;;;;;;;16.33;8.60;;;12.90;99.90;;;;;;5076449;28;20459;-78
2022/10/28 02:26:01;;;;;;;8.90;8.00;;;12.80;99.90;;;;;;5076957;28;20494;-78
2022/10/28 02:28:37;;;;;;;9.40;8.20;;;12.70;99.90;;;;;;5076708;28;20442;-78
2022/10/28 02:31:10;;;;;;;10.33;7.60;;;12.90;99.90;;;;;;5076163;28;20861;-78
2022/10/28 02:33:40;;;;;;;8.33;7.53;;;12.80;99.90;;;;;;5073398;28;20448;-77
2022/10/28 02:36:11;;;;;;;9.80;7.63;;;13.10;99.90;;;;;;5064466;22;20465;-81
2022/10/28 02:38:42;;;;;;;13.17;6.87;;;12.90;99.90;;;;;;5037149;28;20508;-81
2022/10/28 02:41:15;;;;;;;8.77;7.97;;;13.30;99.90;;;;;;5038185;28;20466;-80
2022/10/28 02:43:43;;;;;;;13.07;8.93;;;12.70;99.90;;;;;;5041744;28;20482;-81
2022/10/28 02:46:13;;;;;;;9.40;7.83;;;12.50;99.90;;;;;;5040076;28;20471;-81
2022/10/28 02:48:46;;;;;;;13.20;7.87;;;12.80;99.90;;;;;;5040318;28;20799;-80
2022/10/28 02:51:18;;;;;;;9.27;8.37;;;12.80;99.90;;;;;;5039878;28;20427;-80
2022/10/28 02:53:53;;;;;;;10.53;8.20;;;12.80;99.90;;;;;;5040708;28;20767;-81
2022/10/28 02:56:21;;;;;;;9.00;8.10;;;12.80;99.90;;;;;;5039768;28;20469;-81
2022/10/28 02:58:48;;;;;;;9.60;8.13;;;12.80;99.90;;;;;;5040176;28;20421;-81
2022/10/28 03:01:15;;;;;;;9.27;7.27;;;12.80;99.90;;;;;;5039578;28;20490;-81
2022/10/28 03:03:43;;;;;;;13.33;8.87;;;12.70;99.90;;;;;;5040933;28;20450;-81
2022/10/28 03:06:10;;;;;;;10.73;7.87;;;;;;;;;;5037457;28;20880;-79
2022/10/28 03:08:37;;;;;;;9.40;8.10;;;;;;;;;;5037425;28;20453;-79
2022/10/28 03:11:04;;;;;;;8.97;8.13;;;;;;;;;;5037638;28;20438;-79
2022/10/28 03:13:31;;;;;;;16.53;9.53;;;12.90;99.90;;;;;;5037551;28;20450;-80
2022/10/28 03:15:58;;;;;;;8.80;8.00;;;;;;;;;;5037776;28;20471;-80
2022/10/28 03:18:25;;;;;;;15.27;9.20;;;;;;;;;;5046001;28;20451;-79
2022/10/28 03:20:53;;;;;;;13.27;8.70;;;12.70;99.90;;;;;;5047712;28;20486;-79
2022/10/28 03:23:20;;;;;;;9.10;8.30;;;12.60;99.90;;;;;;5044294;28;20450;-79
2022/10/28 03:25:46;;;;;;;14.20;8.83;;;12.30;99.90;;;;;;5043041;28;20482;-79
2022/10/28 03:28:13;;;;;;;10.33;8.37;;;;;;;;;;5043739;28;20446;-79
2022/10/28 03:30:40;;;;;;;9.17;8.13;;;;;;;;;;5043027;28;20450;-79
2022/10/28 03:33:07;;;;;;;10.70;8.90;;;;;;;;;;5041506;28;20488;-82
2022/10/28 03:35:34;;;;;;;9.80;8.80;;;;;;;;;;5040334;28;20840;-80
2022/10/28 03:38:02;;;;;;;12.20;8.70;;;12.50;99.90;;;;;;5040768;28;20447;-81
2022/10/28 03:40:29;;;;;;;12.37;8.87;;;12.80;99.90;;;;;;5042068;28;20497;-79
2022/10/28 03:42:55;;;;;;;12.67;8.87;;;12.90;99.90;;;;;;5044505;28;20425;-81
2022/10/28 03:45:23;;;;;;;9.13;8.23;;;;;;;;;;5041590;28;20477;-81
2022/10/28 03:47:50;;;;;;;10.57;8.93;;;;;;;;;;5040835;28;20446;-81
2022/10/28 03:50:17;;;;;;;12.77;9.97;;;;;;;;;;5039270;28;20447;-81
2022/10/28 03:52:44;;;;;;;10.57;9.20;;;12.40;99.90;;;;;;5038458;28;20429;-81
2022/10/28 03:55:12;;;;;;;13.90;9.27;;;12.40;99.90;;;;;;5037968;28;20523;-81
2022/10/28 03:57:39;;;;;;;9.53;8.57;;;12.10;99.90;;;;;;5038707;28;20478;-81
2022/10/28 04:00:06;;;;;;;13.23;9.30;;;12.40;99.90;;;;;;5038064;28;20493;-80
2022/10/28 04:02:33;;;;;;;11.10;9.20;;;12.10;99.90;;;;;;5038512;28;20941;-81
2022/10/28 04:05:00;;;;;;;11.57;8.90;;;;;;;;;;5040646;28;20524;-80
2022/10/28 04:07:27;;;;;;;13.53;9.93;;;12.30;99.90;;;;;;5057229;28;20417;-80
2022/10/28 04:09:54;;;;;;;11.73;8.87;;;;;;;;;;5052739;28;20405;-80
2022/10/28 04:12:22;;;;;;;9.97;8.97;;;12.20;99.90;;;;;;5046256;28;20446;-80
2022/10/28 04:14:49;;;;;;;11.13;9.30;;;;;;;;;;5041645;28;20467;-80
2022/10/28 04:17:16;;;;;;;11.27;10.10;;;;;;;;;;5042939;28;20421;-79
2022/10/28 04:19:42;;;;;;;10.00;9.10;;;12.60;99.90;;;;;;5040781;28;20421;-81
2022/10/28 04:22:09;;;;;;;12.60;8.83;;;;;;;;;;5040509;28;20478;-80
2022/10/28 04:24:36;;;;;;;10.57;9.30;;;;;;;;;;5039552;28;20824;-81
2022/10/28 04:27:03;;;;;;;10.53;8.73;;;;;;;;;;5038440;28;20446;-81
2022/10/28 04:29:32;;;;;;;10.53;9.37;;;12.20;99.90;;;;;;5038368;28;20451;-81
2022/10/28 04:31:59;;;;;;;9.40;8.50;;;;;;;;;;5037596;28;20817;-81
2022/10/28 04:34:26;;;;;;;12.07;9.57;;;12.30;99.90;;;;;;5037718;28;20486;-81
2022/10/28 04:36:53;;;;;;;12.87;9.70;;;12.10;99.90;;;;;;5038401;28;20425;-81
2022/10/28 04:39:20;;;;;;;13.10;9.60;;;;;;;;;;5037752;28;20500;-81
2022/10/28 04:41:47;;;;;;;10.60;9.50;;;11.70;99.90;;;;;;5037718;28;21070;-81
2022/10/28 04:44:14;;;;;;;13.23;10.80;;;;;;;;;;5037714;28;20447;-81
2022/10/28 04:46:42;;;;;;;13.47;9.50;;;12.50;99.90;;;;;;5037913;28;20450;-81
2022/10/28 04:49:08;;;;;;;13.30;9.00;;;11.90;99.90;;;;;;5042261;28;20426;-80
2022/10/28 04:51:35;;;;;;;11.83;9.80;;;;;;;;;;5057022;28;20419;-80
2022/10/28 04:54:03;;;;;;;10.30;9.30;;;;;;;;;;5057280;28;20447;-81
2022/10/28 04:56:32;;;;;;;10.17;9.27;;;;;;;;;;5049895;28;20451;-81
2022/10/28 04:58:58;;;;;;;11.17;10.07;;;11.70;99.90;;;;;;5039721;28;20454;-81
2022/10/28 05:01:25;;;;;;;10.63;9.53;;;;;;;;;;5039428;28;20559;-81
2022/10/28 05:03:53;;;;;;;10.27;9.17;;;12.10;99.90;;;;;;5041696;28;20820;-79
2022/10/28 05:06:20;;;;;;;14.27;9.83;;;;;;;;;;5044244;28;20520;-81
2022/10/28 05:08:47;;;;;;;18.00;10.87;;;12.00;99.90;;;;;;5044220;28;20446;-81
2022/10/28 05:11:14;;;;;;;10.97;9.97;;;;;;;;;;5039223;28;20497;-80
2022/10/28 05:13:41;;;;;;;19.40;11.70;;;;;;;;;;5039515;28;20504;-80
2022/10/28 05:16:08;;;;;;;13.90;10.93;;;12.10;99.90;;;;;;5041923;28;20482;-79
2022/10/28 05:18:35;;;;;;;11.73;10.63;;;11.70;99.90;;;;;;5046514;28;20573;-79
2022/10/28 05:21:03;;;;;;;15.50;11.93;;;12.30;99.90;;;;;;5046558;28;20479;-79
2022/10/28 05:23:29;;;;;;;11.20;10.07;;;11.90;99.90;;;;;;5042614;28;20450;-81
2022/10/28 05:25:56;;;;;;;14.77;11.30;;;;;;;;;;5039150;28;20517;-81
2022/10/28 05:28:23;;;;;;;22.27;11.03;;;12.10;99.90;;;;;;5037853;28;20451;-81
2022/10/28 05:30:50;;;;;;;15.50;11.27;;;;;;;;;;5037219;28;20439;-80
2022/10/28 05:33:17;;;;;;;10.90;9.83;;;;;;;;;;5036945;28;20447;-81
2022/10/28 05:35:44;;;;;;;12.30;9.60;;;;;;;;;;5037393;28;20478;-80
2022/10/28 05:38:14;;;;;;;15.47;11.07;;;11.80;99.90;;;;;;5043109;28;20522;-80
2022/10/28 05:40:40;;;;;;;11.77;10.07;;;12.10;99.90;;;;;;5042497;28;20482;-81
2022/10/28 05:43:08;;;;;;;11.23;10.00;;;;;;;;;;5038275;28;20442;-81
2022/10/28 05:45:35;;;;;;;13.10;9.87;;;12.10;99.90;;;;;;5037279;28;20463;-81
2022/10/28 05:48:02;;;;;;;14.90;10.10;;;;;;;;;;5036329;28;21008;-81
2022/10/28 05:50:29;;;;;;;12.80;10.50;;;;;;;;;;5037461;28;20455;-81
2022/10/28 05:52:57;;;;;;;12.77;9.80;;;12.20;99.90;;;;;;5039146;28;20455;-79
2022/10/28 05:55:28;;;;;;;11.20;10.00;;;12.30;99.90;;;;;;5044113;28;20481;-78
2022/10/28 05:57:55;;;;;;;15.70;11.53;;;12.30;99.90;;;;;;5045849;28;20470;-79
2022/10/28 06:00:24;;;;;;;11.03;9.97;;;12.40;99.90;;;;;;5046641;28;20533;-79
2022/10/28 06:02:51;;;;;;;10.57;9.27;;;12.90;99.90;;;;;;5045458;28;20471;-79
2022/10/28 06:05:18;;;;;;;11.27;9.37;;;12.40;99.90;;;;;;5043263;28;20485;-79
2022/10/28 06:07:45;;;;;;;18.93;9.20;;;;;;;;;;5042881;28;20492;-81
2022/10/28 06:10:12;;;;;;;11.07;9.07;;;;;;;;;;5040986;28;20443;-79
2022/10/28 06:12:40;;;;;;;12.13;9.03;;;12.90;99.90;;;;;;5044726;28;20418;-79
2022/10/28 06:15:08;;;;;;;9.20;8.30;;;13.10;99.90;;;;;;5045918;28;20499;-79
2022/10/28 06:17:35;;;;;;;10.03;9.00;;;;;;;;;;5047793;28;20504;-79
2022/10/28 06:20:02;;;;;;;13.63;8.50;;;;;;;;;;5050648;28;20453;-78
2022/10/28 06:22:29;;;;;;;14.17;8.97;;;;;;;;;;5050098;28;20490;-79
2022/10/28 06:24:56;;;;;;;22.53;9.27;;;;;;;;;;5050255;28;20448;-79
2022/10/28 06:27:23;;;;;;;8.90;8.00;;;;;;;;;;5049093;28;20420;-79
2022/10/28 06:29:51;;;;;;;11.57;7.77;;;13.30;99.90;;;;;;5050314;28;20504;-79
2022/10/28 06:32:18;;;;;;;11.70;8.40;;;13.10;99.90;;;;;;5049691;28;20439;-78
2022/10/28 06:34:44;;;;;;;13.43;9.00;;;13.20;99.90;;;;;;5051262;28;20470;-79
2022/10/28 06:37:12;;;;;;;16.20;9.97;;;13.60;99.90;;;;;;5045280;28;20459;-80
2022/10/28 06:39:39;;;;;;;11.60;8.90;;;;;;;;;;5042535;28;20450;-82
2022/10/28 06:42:07;;;;;;;11.60;8.50;;;;;;;;;;5040999;28;20496;-80
2022/10/28 06:44:34;;;;;;;10.20;9.03;;;;;;;;;;5042086;28;20456;-81
2022/10/28 06:47:02;;;;;;;10.37;8.00;;;13.20;99.90;;;;;;5041226;28;20868;-81
2022/10/28 06:49:29;;;;;;;9.10;7.93;;;;;;;;;;5040789;28;20785;-81
2022/10/28 06:51:55;;;;;;;9.73;8.37;;;13.60;99.90;;;;;;5040652;28;20455;-81
2022/10/28 06:54:22;;;;;;;9.33;7.93;;;;;;;;;;5040661;28;20489;-81
2022/10/28 06:56:49;;;;;;;13.20;8.30;;;;;;;;;;5042955;28;20446;-80
2022/10/28 06:59:16;;;;;;;10.13;7.77;;;13.30;99.90;;;;;;5045612;28;21123;-81
2022/10/28 07:01:43;;;;;;;11.90;7.73;;;;;;;;;;5048922;28;20449;-80
2022/10/28 07:04:12;;;;;;;16.63;9.10;;;13.30;99.90;;;;;;5044989;28;20431;-81
2022/10/28 07:06:39;;;;;;;8.47;7.63;;;;;;;;;;5043511;28;20453;-80
2022/10/28 07:09:06;;;;;;;11.97;9.40;;;;;;;;;;5044393;28;20543;-82
2022/10/28 07:11:33;;;;;;;7.73;7.00;;;13.50;99.90;;;;;;5041691;28;20469;-81
2022/10/28 07:14:00;;;;;;;11.23;7.80;;;;;;;;;;5042190;28;20461;-82
2022/10/28 07:16:28;;;;;;;14.33;7.90;;;;;;;;;;5042477;28;20450;-82
2022/10/28 07:18:55;;;;;;;13.50;8.90;;;;;;;;;;5040805;28;20450;-82
2022/10/28 07:21:27;;;;;;;11.57;8.40;;;13.30;99.90;;;;;;5043397;28;20453;-81
2022/10/28 07:23:54;;;;;;;11.23;8.33;;;;;;;;;;5046906;28;20458;-85
2022/10/28 07:26:21;;;;;;;16.30;8.20;;;13.90;99.90;;;;;;5049795;28;20546;-83
2022/10/28 07:28:48;;;;;;;13.90;8.60;;;;;;;;;;5048320;28;20417;-82
2022/10/28 07:31:14;;;;;;;20.33;7.90;;;13.40;99.90;;;;;;5058342;28;20425;-82
2022/10/28 07:33:41;;;;;;;10.00;8.40;;;;;;;;;;5057024;28;20446;-83
2022/10/28 07:36:09;;;;;;;15.10;9.10;;;14.20;99.90;;;;;;5048712;28;21046;-83
2022/10/28 07:38:37;;;;;;;12.10;7.97;;;13.80;99.90;;;;;;5045847;28;20508;-81
2022/10/28 07:41:06;;;;;;;11.43;7.50;;;13.90;99.90;;;;;;5041061;28;20446;-81
2022/10/28 07:43:35;;;;;;;11.60;7.50;;;13.90;99.90;;;;;;5040467;28;20477;-81
2022/10/28 07:46:02;;;;;;;10.03;7.93;;;;;;;;;;5040049;28;20549;-81
2022/10/28 07:48:29;;;;;;;10.20;6.93;;;13.60;99.90;;;;;;5040104;28;20446;-81
2022/10/28 07:50:56;;;;;;;16.53;10.00;;;;;;;;;;5040508;28;20533;-81
2022/10/28 07:53:23;;;;;;;13.20;7.33;;;13.80;99.90;;;;;;5040400;28;20452;-82
2022/10/28 07:55:56;;;;;;;13.43;9.90;;;14.20;99.90;;;;;;5041865;28;20482;-81
2022/10/28 07:58:23;;;;;;;12.60;7.03;;;;;;;;;;5041830;28;20850;-81
2022/10/28 08:00:50;;;;;;;7.47;6.70;;;;;;;;;;5040710;28;20813;-81
2022/10/28 08:03:18;;;;;;;17.30;7.87;;;;;;;;;;5040173;28;20474;-81
2022/10/28 08:05:44;;;;;;;11.63;7.57;;;14.80;99.90;;;;;;5039810;28;20474;-81
2022/10/28 08:08:11;;;;;;;9.83;6.73;;;14.50;99.90;;;;;;5039602;28;20451;-81
2022/10/28 08:10:38;;;;;;;7.97;6.60;;;;;;;;;;5039287;28;20443;-81
2022/10/28 08:13:06;;;;;;;7.10;6.40;;;14.70;99.90;;;;;;5039447;28;20446;-81
2022/10/28 08:15:33;;;;;;;7.23;5.73;;;;;;;;;;5039550;28;21046;-81
2022/10/28 08:18:00;;;;;;;7.47;6.63;;;14.80;99.90;;;;;;5038658;28;20813;-80
2022/10/28 08:20:27;;;;;;;11.73;7.83;;;;;;;;;;5045926;28;20461;-80
2022/10/28 08:22:54;;;;;;;8.00;5.77;;;;;;;;;;5046865;28;20485;-79
2022/10/28 08:25:21;;;;;;;8.07;5.47;;;15.30;99.90;;;;;;5041223;28;20466;-80
2022/10/28 08:27:48;;;;;;;6.90;5.57;;;15.30;99.90;;;;;;5045476;28;20793;-78
2022/10/28 08:30:16;;;;;;;8.30;5.60;;;15.30;99.90;;;;;;5046240;28;20442;-80
2022/10/28 08:32:43;;;;;;;7.00;5.30;;;;;;;;;;5041932;28;20443;-80
2022/10/28 08:35:10;;;;;;;10.57;6.50;;;;;;;;;;5065254;22;20487;-80
2022/10/28 08:37:37;;;;;;;6.90;5.53;;;;;;;;;;5042407;28;20442;-82
2022/10/28 08:40:04;;;;;;;6.43;5.40;;;15.70;99.90;;;;;;5040871;28;20457;-81
2022/10/28 08:42:39;;;;;;;11.87;6.07;;;16.30;99.90;;;;;;5041234;28;21004;-82
2022/10/28 08:45:23;;;;;;;6.63;5.60;;;16.30;99.90;;;;;;5040493;28;20553;-81
2022/10/28 08:48:09;;;;;;;9.83;6.37;;;16.80;99.90;;;;;;5040179;28;20431;-81
2022/10/28 08:50:46;;;;;;;7.77;6.33;;;16.20;99.90;;;;;;5039436;28;20436;-81
2022/10/28 08:53:17;;;;;;;7.23;5.30;;;16.10;99.90;;;;;;5039617;28;20502;-81
2022/10/28 08:55:47;;;;;;;13.47;5.90;;;16.00;99.90;;;;;;5038964;28;20462;-81
2022/10/28 08:58:19;;;;;;;9.60;6.40;;;16.00;99.90;;;;;;5040146;28;20451;-83
2022/10/28 09:00:52;;;;;;;6.20;4.87;;;15.80;99.90;;;;;;5039080;28;20438;-81
2022/10/28 09:03:21;;;;;;;9.03;5.83;;;15.90;99.90;;;;;;5039909;28;20471;-81
2022/10/28 09:05:53;;;;;;;13.30;5.57;;;15.90;99.90;;;;;;5039879;28;20478;-81
2022/10/28 09:08:23;;;;;;;10.93;5.90;;;15.90;99.90;;;;;;5038307;28;20770;-81
2022/10/28 09:11:05;;;;;;;6.87;5.23;;;16.50;99.90;;;;;;5038731;28;20431;-80
2022/10/28 09:13:46;;;;;;;6.70;4.83;;;16.10;99.90;;;;;;5039156;28;20434;-81
2022/10/28 09:16:24;;;;;;;6.70;5.27;;;16.10;99.90;;;;;;5040271;28;20482;-80
2022/10/28 09:18:52;;;;;;;6.73;5.40;;;16.20;99.90;;;;;;5042544;28;20415;-80
2022/10/28 09:21:24;;;;;;;7.83;4.67;;;16.10;99.90;;;;;;5040925;28;20450;-81
2022/10/28 09:23:56;;;;;;;10.30;5.80;;;16.20;99.90;;;;;;5041056;28;20422;-80
2022/10/28 09:26:33;;;;;;;6.90;5.57;;;16.20;99.90;;;;;;5039198;28;20494;-81
2022/10/28 09:29:09;;;;;;;12.63;6.10;;;16.30;99.90;;;;;;5039632;28;20488;-81
2022/10/28 09:31:40;;;;;;;6.97;5.33;;;16.30;99.90;;;;;;5039328;28;20434;-80
2022/10/28 09:34:19;;;;;;;6.93;5.30;;;16.40;99.90;;;;;;5039409;28;20461;-80
2022/10/28 09:36:51;;;;;;;5.40;4.90;;;16.50;99.90;;;;;;5038901;28;20470;-81
2022/10/28 09:39:22;;;;;;;10.50;5.57;;;16.60;99.90;;;;;;5039680;28;20793;-81
2022/10/28 09:41:50;;;;;;;18.63;6.23;;;16.70;99.90;;;;;;5038107;28;20466;-81
2022/10/28 09:44:22;;;;;;;9.17;5.83;;;16.70;99.90;;;;;;5039252;28;20458;-81
2022/10/28 09:46:54;;;;;;;9.73;6.77;;;16.80;99.90;;;;;;5049412;28;20427;-81
2022/10/28 09:49:24;;;;;;;6.93;6.00;;;16.60;99.90;;;;;;5051900;28;20438;-81
2022/10/28 09:51:55;;;;;;;12.70;5.60;;;16.90;99.90;;;;;;5040123;28;20435;-81
2022/10/28 09:54:29;;;;;;;6.00;4.63;;;17.10;99.90;;;;;;5042328;28;20489;-81
2022/10/28 09:56:56;;;;;;;8.53;5.00;;;;;;;;;;5045150;28;20430;-82
2022/10/28 09:59:23;;;;;;;6.40;5.07;;;;;;;;;;5039997;28;20427;-82
2022/10/28 10:01:51;;;;;;;5.30;4.47;;;17.50;99.90;;;;;;5039286;28;20538;-82
2022/10/28 10:04:21;;;;;;;7.30;4.93;;;17.70;99.90;;;;;;5039347;28;20450;-81
2022/10/28 10:06:51;;;;;;;6.17;4.97;;;17.80;99.90;;;;;;5038999;28;20454;-81
2022/10/28 10:09:22;;;;;;;7.50;4.73;;;18.20;99.90;;;;;;5039498;28;20469;-81
2022/10/28 10:11:52;;;;;;;5.73;5.17;;;18.20;99.90;;;;;;5039085;28;20439;-82
2022/10/28 10:14:23;;;;;;;14.13;6.10;;;18.30;99.90;;;;;;5039919;28;20443;-82
2022/10/28 10:16:54;;;;;;;9.60;5.90;;;18.30;99.90;;;;;;5046314;28;20442;-81
2022/10/28 10:19:21;;;;;;;10.97;5.90;;;;;;;;;;5048100;28;20438;-81
2022/10/28 10:21:49;;;;;;;8.60;5.73;;;18.30;99.90;;;;;;5052498;28;20473;-81
2022/10/28 10:24:30;;;;;;;5.63;5.00;;;18.50;99.90;;;;;;5046765;28;20443;-81
2022/10/28 10:26:57;;;;;;;5.50;5.00;;;;;;;;;;5041556;28;20529;-81
2022/10/28 10:29:25;;;;;;;15.30;6.50;;;;;;;;;;5040915;28;20451;-81
2022/10/28 10:32:08;;;;;;;9.73;6.23;;;18.30;99.90;;;;;;5040269;28;20462;-81
2022/10/28 10:34:35;;;;;;;10.20;6.00;;;;;;;;;;5039518;28;20431;-81
2022/10/28 10:37:03;;;;;;;9.63;6.60;;;18.40;99.90;;;;;;5039911;28;20430;-81
2022/10/28 10:39:35;;;;;;;11.97;5.77;;;18.40;99.90;;;;;;5039747;28;20497;-81
2022/10/28 10:42:02;;;;;;;10.80;5.00;;;;;;;;;;5039940;28;20407;-82
2022/10/28 10:44:32;;;;;;;10.50;5.40;;;18.20;99.90;;;;;;5038810;28;20462;-80
2022/10/28 10:47:21;;;;;;;4.60;4.20;;;18.60;99.90;;;;;;5042035;28;20442;-81
2022/10/28 10:49:50;;;;;;;10.37;7.30;;;;;;;;;;5038799;28;20479;-81
2022/10/28 10:52:20;;;;;;;9.37;6.73;;;18.60;99.90;;;;;;5039036;28;20956;-82
2022/10/28 10:54:59;;;;;;;9.67;7.33;;;18.20;99.90;;;;;;5038825;28;21016;-82
2022/10/28 10:57:26;;;;;;;7.43;4.60;;;18.80;99.90;;;;;;5038688;28;20415;-82
2022/10/28 10:59:55;;;;;;;8.13;5.20;;;18.80;99.90;;;;;;5039099;28;20447;-82
2022/10/28 11:02:27;;;;;;;4.57;4.17;;;18.80;99.90;;;;;;5040494;28;20485;-82
2022/10/28 11:04:56;;;;;;;6.97;4.00;;;18.90;99.90;;;;;;5045585;28;20475;-81
2022/10/28 11:07:23;;;;;;;4.20;3.80;;;;;;;;;;5050426;28;20569;-81
2022/10/28 11:09:51;;;;;;;7.00;4.00;;;18.90;99.90;;;;;;5050278;28;20449;-81
2022/10/28 11:12:25;;;;;;;6.80;5.70;;;;;;;;;;5047306;28;20438;-81
2022/10/28 11:14:58;;;;;;;7.60;5.50;;;19.00;99.90;;;;;;5047504;28;20450;-81
2022/10/28 11:17:27;;;;;;;10.53;6.20;;;19.10;99.90;;;;;;5048955;28;20963;-82
2022/10/28 11:19:57;;;;;;;10.47;5.97;;;19.10;99.90;;;;;;5048030;28;20449;-82
2022/10/28 11:22:42;;;;;;;11.20;5.00;;;19.10;99.90;;;;;;5042873;28;20536;-81
2022/10/28 11:25:23;;;;;;;9.40;5.80;;;19.20;99.90;;;;;;5043155;28;20474;-80
2022/10/28 11:28:01;;;;;;;10.53;6.10;;;19.20;99.90;;;;;;5041532;28;20470;-81
2022/10/28 11:30:39;;;;;;;14.10;5.47;;;19.30;99.90;;;;;;5040261;28;20449;-80
2022/10/28 11:33:13;;;;;;;14.60;4.67;;;19.00;99.90;;;;;;5041219;28;20435;-80
2022/10/28 11:35:53;;;;;;;10.30;7.17;;;19.50;99.90;;;;;;5042127;28;20486;-79
2022/10/28 11:38:43;;;;;;;6.33;4.40;;;19.60;99.90;;;;;;5041290;28;20435;-80
2022/10/28 11:41:23;;;;;;;9.83;5.43;;;19.70;99.90;;;;;;5040648;28;20917;-81
2022/10/28 11:43:52;;;;;;;10.67;5.17;;;19.80;99.90;;;;;;5041288;28;20474;-78
2022/10/28 11:46:34;;;;;;;16.00;6.03;;;19.80;99.90;;;;;;5038706;28;21023;-79
2022/10/28 11:49:37;;;;;;;12.07;5.57;;;20.30;99.90;;;;;;5036729;28;20432;-78
2022/10/28 11:52:17;;;;;;;16.03;4.93;;;19.90;99.90;;;;;;5037156;28;20438;-78
2022/10/28 11:54:57;;;;;;;6.80;4.90;;;19.90;99.90;;;;;;5035279;28;20532;-77
2022/10/28 11:57:34;;;;;;;7.20;4.70;;;20.00;99.90;;;;;;5035501;28;20435;-78
2022/10/28 12:00:14;;;;;;;12.20;5.77;;;20.50;99.90;;;;;;5035686;28;20435;-77
2022/10/28 12:03:00;;;;;;;7.50;5.70;;;20.00;99.90;;;;;;5035271;28;20474;-77
2022/10/28 12:05:34;;;;;;;10.47;5.43;;;20.00;99.90;;;;;;5035962;28;20470;-76
2022/10/28 12:08:14;;;;;;;6.43;5.60;;;20.10;99.90;;;;;;5035259;28;20501;-77
2022/10/28 12:10:58;;;;;;;9.47;6.57;;;20.20;99.90;;;;;;5034848;28;20435;-76
2022/10/28 12:13:33;;;;;;;6.87;5.13;;;20.30;99.90;;;;;;5035236;28;20412;-78
2022/10/28 12:16:08;;;;;;;14.43;6.13;;;20.30;99.90;;;;;;5034000;28;20873;-77
2022/10/28 12:18:44;;;;;;;11.47;5.33;;;20.50;99.90;;;;;;5034887;28;20517;-77
2022/10/28 12:21:19;;;;;;;8.63;5.10;;;20.60;99.90;;;;;;5034657;28;20843;-77
2022/10/28 12:23:47;;;;;;;12.70;5.83;;;;;;;;;;5034696;28;20466;-78
2022/10/28 12:26:16;;;;;;;8.50;5.10;;;20.90;25.70;;;;;;5035182;28;20466;-77
2022/10/28 12:28:46;;;;;;;10.10;5.90;;;20.90;8.20;;;;;;5035684;28;20451;-77
2022/10/28 12:31:20;;;;;;;13.40;6.43;;;20.70;7.20;;;;;;5036674;28;20498;-77
2022/10/28 12:33:51;;;;;;;10.63;5.63;;;20.70;18.20;;;;;;5034936;28;20427;-77
2022/10/28 12:36:27;;;;;;;10.03;5.60;;;20.30;99.90;;;;;;5037561;28;20474;-78
2022/10/28 12:39:00;;;;;;;15.73;4.53;;;20.60;20.80;;;;;;5034984;28;20430;-79
2022/10/28 12:41:31;;;;;;;14.10;5.43;;;20.50;78.80;;;;;;5036042;28;20435;-78
2022/10/28 12:44:02;;;;;;;11.37;7.07;;;20.50;99.90;;;;;;5054187;28;20437;-79
2022/10/28 12:46:46;;;;;;;34.87;6.13;;;20.50;99.90;;;;;;5050139;28;20471;-82
2022/10/28 12:49:18;;;;;;;18.50;7.40;;;20.40;99.90;;;;;;5046983;28;20461;-80
2022/10/28 12:51:46;;;;;;;15.67;8.53;;;20.40;99.90;;;;;;5044647;28;20435;-80
2022/10/28 12:54:21;;;;;;;9.50;6.37;;;20.40;99.90;;;;;;5046954;28;20439;-81
2022/10/28 12:56:51;;;;;;;11.63;6.67;;;20.30;99.90;;;;;;5047244;28;20434;-79
2022/10/28 12:59:29;;;;;;;16.93;8.67;;;20.30;99.90;;;;;;5045388;28;20431;-80
2022/10/28 13:01:59;;;;;;;21.03;15.60;;;20.30;99.90;;;;;;5046601;28;20427;-80
2022/10/28 13:04:26;;;;;;;19.37;13.20;;;20.70;99.90;;;;;;5046063;28;20478;-80
2022/10/28 13:07:19;;;;;;;13.73;7.37;;;20.20;99.90;;;;;;5047379;28;20932;-81
2022/10/28 13:10:02;;;;;;;7.30;5.80;;;20.60;99.90;;;;;;5043075;28;20443;-80
2022/10/28 13:12:43;;;;;;;8.33;6.80;;;20.20;99.90;;;;;;5044665;28;20442;-80
2022/10/28 13:15:24;;;;;;;12.37;7.80;;;20.20;99.90;;;;;;5045032;28;20471;-81
2022/10/28 13:18:05;;;;;;;10.27;7.70;;;20.10;99.90;;;;;;5048016;28;20411;-80
2022/10/28 13:20:43;;;;;;;10.20;6.40;;;20.10;99.90;;;;;;5047784;28;20430;-80
2022/10/28 13:23:20;;;;;;;11.77;8.10;;;20.10;99.90;;;;;;5044359;28;21003;-80
2022/10/28 13:25:57;;;;;;;12.50;8.13;;;20.10;99.90;;;;;;5042966;28;20469;-79